ěÝzenÝ letovÚho provozu ╚eskÚ republiky
Letiste: LKKB Aktualizace: 21.01.2020 23:00:27  UTC
 METAR LKKB 21.01. 23:00 ...
METAR LKKB 212300Z 19007KT 6000 OVC005 M02/M04 Q1036 NOSIG RMK YLO=
 TAF LKKB 21.01. 17:00 AMD
TAF AMD LKKB 211700Z 2118/2218 17008KT 7000 OVC005      BECMG 2119/2121 5000 BR OVC004      BECMG 2121/2123 3000 BR OVC003      TEMPO 2123/2208 1200 BR OVC001      BECMG 2208/2210 28008KT 8000 SCT010      BECMG 2210/2212 32008KT 9999 BKN015=